sensor_id;sensor_type;location;lat;lon;timestamp;P1;durP1;ratioP1;P2;durP2;ratioP2
54945;SDS011;40846;44.788;20.486;2023-11-21T00:00:37;122.70;;;65.85;;
54945;SDS011;40846;44.788;20.486;2023-11-21T00:03:03;117.80;;;64.60;;
54945;SDS011;40846;44.788;20.486;2023-11-21T00:05:29;139.60;;;73.93;;
54945;SDS011;40846;44.788;20.486;2023-11-21T00:07:55;135.23;;;78.25;;
54945;SDS011;40846;44.788;20.486;2023-11-21T00:10:21;126.95;;;74.15;;
54945;SDS011;40846;44.788;20.486;2023-11-21T00:12:47;126.18;;;70.82;;
54945;SDS011;40846;44.788;20.486;2023-11-21T00:15:13;115.68;;;64.43;;
54945;SDS011;40846;44.788;20.486;2023-11-21T00:17:39;78.97;;;40.13;;
54945;SDS011;40846;44.788;20.486;2023-11-21T00:20:05;72.78;;;39.72;;
54945;SDS011;40846;44.788;20.486;2023-11-21T00:22:35;78.88;;;46.00;;
54945;SDS011;40846;44.788;20.486;2023-11-21T00:25:02;75.22;;;40.17;;
54945;SDS011;40846;44.788;20.486;2023-11-21T00:27:29;73.82;;;37.90;;
54945;SDS011;40846;44.788;20.486;2023-11-21T00:29:55;72.55;;;38.78;;
54945;SDS011;40846;44.788;20.486;2023-11-21T00:32:21;72.97;;;36.70;;
54945;SDS011;40846;44.788;20.486;2023-11-21T00:34:46;75.70;;;39.17;;
54945;SDS011;40846;44.788;20.486;2023-11-21T00:37:12;79.88;;;37.88;;
54945;SDS011;40846;44.788;20.486;2023-11-21T00:39:39;73.75;;;41.38;;
54945;SDS011;40846;44.788;20.486;2023-11-21T00:42:05;73.13;;;34.25;;
54945;SDS011;40846;44.788;20.486;2023-11-21T00:44:32;57.90;;;30.33;;
54945;SDS011;40846;44.788;20.486;2023-11-21T00:46:59;51.05;;;25.92;;
54945;SDS011;40846;44.788;20.486;2023-11-21T00:49:25;57.70;;;30.55;;
54945;SDS011;40846;44.788;20.486;2023-11-21T00:51:50;50.65;;;26.50;;
54945;SDS011;40846;44.788;20.486;2023-11-21T00:54:16;41.20;;;18.42;;
54945;SDS011;40846;44.788;20.486;2023-11-21T00:56:42;41.13;;;17.20;;
54945;SDS011;40846;44.788;20.486;2023-11-21T00:59:08;33.00;;;16.13;;
54945;SDS011;40846;44.788;20.486;2023-11-21T01:01:35;31.08;;;17.33;;
54945;SDS011;40846;44.788;20.486;2023-11-21T01:04:02;29.95;;;16.98;;
54945;SDS011;40846;44.788;20.486;2023-11-21T01:06:29;27.70;;;15.85;;
54945;SDS011;40846;44.788;20.486;2023-11-21T01:08:55;31.05;;;14.85;;
54945;SDS011;40846;44.788;20.486;2023-11-21T01:11:21;29.35;;;16.02;;
54945;SDS011;40846;44.788;20.486;2023-11-21T01:13:47;31.48;;;16.02;;
54945;SDS011;40846;44.788;20.486;2023-11-21T01:16:13;27.73;;;15.88;;
54945;SDS011;40846;44.788;20.486;2023-11-21T01:18:39;26.33;;;14.23;;
54945;SDS011;40846;44.788;20.486;2023-11-21T01:21:05;26.70;;;15.18;;
54945;SDS011;40846;44.788;20.486;2023-11-21T01:23:32;26.58;;;13.48;;
54945;SDS011;40846;44.788;20.486;2023-11-21T01:25:58;26.55;;;14.43;;
54945;SDS011;40846;44.788;20.486;2023-11-21T01:28:24;26.02;;;14.07;;
54945;SDS011;40846;44.788;20.486;2023-11-21T01:30:51;24.92;;;15.32;;
54945;SDS011;40846;44.788;20.486;2023-11-21T01:33:21;29.25;;;16.13;;
54945;SDS011;40846;44.788;20.486;2023-11-21T01:35:49;25.63;;;15.80;;
54945;SDS011;40846;44.788;20.486;2023-11-21T01:38:16;30.27;;;16.40;;
54945;SDS011;40846;44.788;20.486;2023-11-21T01:40:42;27.25;;;14.68;;
54945;SDS011;40846;44.788;20.486;2023-11-21T01:43:08;30.67;;;16.38;;
54945;SDS011;40846;44.788;20.486;2023-11-21T01:45:34;25.58;;;14.30;;
54945;SDS011;40846;44.788;20.486;2023-11-21T01:48:00;25.85;;;13.43;;
54945;SDS011;40846;44.788;20.486;2023-11-21T01:50:27;31.83;;;17.38;;
54945;SDS011;40846;44.788;20.486;2023-11-21T01:52:53;26.50;;;15.98;;
54945;SDS011;40846;44.788;20.486;2023-11-21T01:55:19;31.85;;;16.25;;
54945;SDS011;40846;44.788;20.486;2023-11-21T01:57:46;28.23;;;16.25;;
54945;SDS011;40846;44.788;20.486;2023-11-21T02:00:12;30.48;;;16.40;;
54945;SDS011;40846;44.788;20.486;2023-11-21T02:02:48;27.88;;;16.95;;
54945;SDS011;40846;44.788;20.486;2023-11-21T02:05:14;41.15;;;20.25;;
54945;SDS011;40846;44.788;20.486;2023-11-21T02:07:46;53.65;;;25.95;;
54945;SDS011;40846;44.788;20.486;2023-11-21T02:10:17;78.68;;;40.03;;
54945;SDS011;40846;44.788;20.486;2023-11-21T02:12:47;24.98;;;15.45;;
54945;SDS011;40846;44.788;20.486;2023-11-21T02:15:15;26.70;;;14.88;;
54945;SDS011;40846;44.788;20.486;2023-11-21T02:17:51;46.78;;;25.92;;
54945;SDS011;40846;44.788;20.486;2023-11-21T02:20:18;27.92;;;16.70;;
54945;SDS011;40846;44.788;20.486;2023-11-21T02:22:55;27.23;;;15.40;;
54945;SDS011;40846;44.788;20.486;2023-11-21T02:25:42;26.15;;;15.27;;
54945;SDS011;40846;44.788;20.486;2023-11-21T02:28:08;28.30;;;15.68;;
54945;SDS011;40846;44.788;20.486;2023-11-21T02:30:34;29.42;;;16.33;;
54945;SDS011;40846;44.788;20.486;2023-11-21T02:33:01;29.95;;;16.33;;
54945;SDS011;40846;44.788;20.486;2023-11-21T02:35:27;23.00;;;14.88;;
54945;SDS011;40846;44.788;20.486;2023-11-21T02:37:53;25.77;;;15.05;;
54945;SDS011;40846;44.788;20.486;2023-11-21T02:40:19;24.77;;;15.77;;
54945;SDS011;40846;44.788;20.486;2023-11-21T02:42:46;28.13;;;16.85;;
54945;SDS011;40846;44.788;20.486;2023-11-21T02:45:13;30.50;;;17.20;;
54945;SDS011;40846;44.788;20.486;2023-11-21T02:47:41;30.95;;;17.90;;
54945;SDS011;40846;44.788;20.486;2023-11-21T02:50:08;34.00;;;18.60;;
54945;SDS011;40846;44.788;20.486;2023-11-21T02:52:34;40.03;;;21.88;;
54945;SDS011;40846;44.788;20.486;2023-11-21T02:55:03;37.63;;;21.15;;
54945;SDS011;40846;44.788;20.486;2023-11-21T02:57:29;40.53;;;24.40;;
54945;SDS011;40846;44.788;20.486;2023-11-21T02:59:56;39.25;;;23.40;;
54945;SDS011;40846;44.788;20.486;2023-11-21T03:02:22;42.42;;;23.17;;
54945;SDS011;40846;44.788;20.486;2023-11-21T03:04:48;58.60;;;32.47;;
54945;SDS011;40846;44.788;20.486;2023-11-21T03:07:14;40.20;;;23.38;;
54945;SDS011;40846;44.788;20.486;2023-11-21T03:09:40;41.58;;;22.23;;
54945;SDS011;40846;44.788;20.486;2023-11-21T03:12:07;41.38;;;22.52;;
54945;SDS011;40846;44.788;20.486;2023-11-21T03:14:33;42.53;;;25.02;;
54945;SDS011;40846;44.788;20.486;2023-11-21T03:17:00;44.85;;;24.48;;
54945;SDS011;40846;44.788;20.486;2023-11-21T03:19:25;43.60;;;23.75;;
54945;SDS011;40846;44.788;20.486;2023-11-21T03:21:51;44.70;;;22.63;;
54945;SDS011;40846;44.788;20.486;2023-11-21T03:24:18;34.60;;;22.30;;
54945;SDS011;40846;44.788;20.486;2023-11-21T03:26:45;42.25;;;23.55;;
54945;SDS011;40846;44.788;20.486;2023-11-21T03:29:11;44.97;;;22.20;;
54945;SDS011;40846;44.788;20.486;2023-11-21T03:31:37;37.03;;;22.50;;
54945;SDS011;40846;44.788;20.486;2023-11-21T03:34:04;44.78;;;24.52;;
54945;SDS011;40846;44.788;20.486;2023-11-21T03:36:30;41.72;;;23.88;;
54945;SDS011;40846;44.788;20.486;2023-11-21T03:38:55;39.50;;;24.42;;
54945;SDS011;40846;44.788;20.486;2023-11-21T03:41:21;48.72;;;25.25;;
54945;SDS011;40846;44.788;20.486;2023-11-21T03:43:47;44.78;;;27.45;;
54945;SDS011;40846;44.788;20.486;2023-11-21T03:46:13;46.72;;;24.65;;
54945;SDS011;40846;44.788;20.486;2023-11-21T03:48:39;53.05;;;27.25;;
54945;SDS011;40846;44.788;20.486;2023-11-21T03:51:07;44.03;;;24.88;;
54945;SDS011;40846;44.788;20.486;2023-11-21T03:53:33;48.72;;;26.58;;
54945;SDS011;40846;44.788;20.486;2023-11-21T03:56:01;48.78;;;26.55;;
54945;SDS011;40846;44.788;20.486;2023-11-21T03:58:27;50.63;;;27.63;;
54945;SDS011;40846;44.788;20.486;2023-11-21T04:00:53;41.50;;;25.42;;
54945;SDS011;40846;44.788;20.486;2023-11-21T04:03:19;39.42;;;23.52;;
54945;SDS011;40846;44.788;20.486;2023-11-21T04:05:45;38.78;;;22.35;;
54945;SDS011;40846;44.788;20.486;2023-11-21T04:08:12;22.13;;;13.80;;
54945;SDS011;40846;44.788;20.486;2023-11-21T04:10:38;27.08;;;16.15;;
54945;SDS011;40846;44.788;20.486;2023-11-21T04:13:04;21.10;;;13.07;;
54945;SDS011;40846;44.788;20.486;2023-11-21T04:15:31;26.67;;;13.88;;
54945;SDS011;40846;44.788;20.486;2023-11-21T04:17:58;27.08;;;14.65;;
54945;SDS011;40846;44.788;20.486;2023-11-21T04:20:24;27.58;;;16.27;;
54945;SDS011;40846;44.788;20.486;2023-11-21T04:22:50;36.17;;;18.92;;
54945;SDS011;40846;44.788;20.486;2023-11-21T04:25:16;37.05;;;20.45;;
54945;SDS011;40846;44.788;20.486;2023-11-21T04:27:43;38.28;;;20.77;;
54945;SDS011;40846;44.788;20.486;2023-11-21T04:30:10;45.47;;;22.65;;
54945;SDS011;40846;44.788;20.486;2023-11-21T04:32:36;38.85;;;21.42;;
54945;SDS011;40846;44.788;20.486;2023-11-21T04:35:02;36.20;;;21.92;;
54945;SDS011;40846;44.788;20.486;2023-11-21T04:37:29;46.20;;;21.90;;
54945;SDS011;40846;44.788;20.486;2023-11-21T04:39:55;40.40;;;22.58;;
54945;SDS011;40846;44.788;20.486;2023-11-21T04:42:21;45.92;;;24.95;;
54945;SDS011;40846;44.788;20.486;2023-11-21T04:44:48;48.20;;;24.88;;
54945;SDS011;40846;44.788;20.486;2023-11-21T04:47:14;45.17;;;25.90;;
54945;SDS011;40846;44.788;20.486;2023-11-21T04:49:43;46.75;;;26.05;;
54945;SDS011;40846;44.788;20.486;2023-11-21T04:52:09;42.83;;;24.70;;
54945;SDS011;40846;44.788;20.486;2023-11-21T04:54:35;40.63;;;24.20;;
54945;SDS011;40846;44.788;20.486;2023-11-21T04:57:02;40.33;;;23.50;;
54945;SDS011;40846;44.788;20.486;2023-11-21T04:59:29;43.33;;;24.23;;
54945;SDS011;40846;44.788;20.486;2023-11-21T05:01:55;41.17;;;24.20;;
54945;SDS011;40846;44.788;20.486;2023-11-21T05:04:21;42.05;;;24.20;;
54945;SDS011;40846;44.788;20.486;2023-11-21T05:06:47;45.75;;;25.05;;
54945;SDS011;40846;44.788;20.486;2023-11-21T05:09:13;48.58;;;27.33;;
54945;SDS011;40846;44.788;20.486;2023-11-21T05:11:40;46.53;;;27.00;;
54945;SDS011;40846;44.788;20.486;2023-11-21T05:14:07;50.50;;;28.65;;
54945;SDS011;40846;44.788;20.486;2023-11-21T05:16:33;45.33;;;27.65;;
54945;SDS011;40846;44.788;20.486;2023-11-21T05:19:00;46.75;;;26.35;;
54945;SDS011;40846;44.788;20.486;2023-11-21T05:21:26;43.85;;;26.45;;
54945;SDS011;40846;44.788;20.486;2023-11-21T05:23:53;46.53;;;25.90;;
54945;SDS011;40846;44.788;20.486;2023-11-21T05:26:19;47.05;;;24.17;;
54945;SDS011;40846;44.788;20.486;2023-11-21T05:28:45;43.67;;;23.65;;
54945;SDS011;40846;44.788;20.486;2023-11-21T05:31:11;38.13;;;23.58;;
54945;SDS011;40846;44.788;20.486;2023-11-21T05:33:37;49.17;;;28.73;;
54945;SDS011;40846;44.788;20.486;2023-11-21T05:36:03;43.35;;;24.17;;
54945;SDS011;40846;44.788;20.486;2023-11-21T05:38:29;41.53;;;24.00;;
54945;SDS011;40846;44.788;20.486;2023-11-21T05:40:56;41.45;;;24.88;;
54945;SDS011;40846;44.788;20.486;2023-11-21T05:43:23;40.03;;;24.42;;
54945;SDS011;40846;44.788;20.486;2023-11-21T05:45:49;38.15;;;22.73;;
54945;SDS011;40846;44.788;20.486;2023-11-21T05:48:15;45.40;;;25.73;;
54945;SDS011;40846;44.788;20.486;2023-11-21T05:50:41;41.85;;;23.08;;
54945;SDS011;40846;44.788;20.486;2023-11-21T05:53:07;34.45;;;21.45;;
54945;SDS011;40846;44.788;20.486;2023-11-21T05:55:36;32.13;;;20.45;;
54945;SDS011;40846;44.788;20.486;2023-11-21T05:58:04;36.10;;;19.33;;
54945;SDS011;40846;44.788;20.486;2023-11-21T06:00:30;31.58;;;18.83;;
54945;SDS011;40846;44.788;20.486;2023-11-21T06:02:57;32.72;;;17.83;;
54945;SDS011;40846;44.788;20.486;2023-11-21T06:05:24;26.42;;;17.05;;
54945;SDS011;40846;44.788;20.486;2023-11-21T06:07:50;30.80;;;16.15;;
54945;SDS011;40846;44.788;20.486;2023-11-21T06:10:17;26.52;;;16.17;;
54945;SDS011;40846;44.788;20.486;2023-11-21T06:12:44;28.65;;;20.05;;
54945;SDS011;40846;44.788;20.486;2023-11-21T06:15:10;29.70;;;15.70;;
54945;SDS011;40846;44.788;20.486;2023-11-21T06:17:39;24.15;;;15.10;;
54945;SDS011;40846;44.788;20.486;2023-11-21T06:20:06;24.08;;;14.93;;
54945;SDS011;40846;44.788;20.486;2023-11-21T06:22:39;28.48;;;15.30;;
54945;SDS011;40846;44.788;20.486;2023-11-21T06:25:05;25.48;;;16.20;;
54945;SDS011;40846;44.788;20.486;2023-11-21T06:27:33;39.83;;;18.38;;
54945;SDS011;40846;44.788;20.486;2023-11-21T06:29:59;36.97;;;21.63;;
54945;SDS011;40846;44.788;20.486;2023-11-21T06:32:25;49.10;;;27.40;;
54945;SDS011;40846;44.788;20.486;2023-11-21T06:34:54;49.10;;;29.75;;
54945;SDS011;40846;44.788;20.486;2023-11-21T06:37:20;54.55;;;29.10;;
54945;SDS011;40846;44.788;20.486;2023-11-21T06:39:51;55.83;;;32.42;;
54945;SDS011;40846;44.788;20.486;2023-11-21T06:42:17;62.63;;;32.85;;
54945;SDS011;40846;44.788;20.486;2023-11-21T06:44:44;72.85;;;33.70;;
54945;SDS011;40846;44.788;20.486;2023-11-21T06:47:11;65.68;;;34.90;;
54945;SDS011;40846;44.788;20.486;2023-11-21T06:49:37;63.75;;;33.90;;
54945;SDS011;40846;44.788;20.486;2023-11-21T06:52:03;60.97;;;37.15;;
54945;SDS011;40846;44.788;20.486;2023-11-21T06:54:30;72.72;;;38.78;;
54945;SDS011;40846;44.788;20.486;2023-11-21T06:56:58;68.93;;;37.85;;
54945;SDS011;40846;44.788;20.486;2023-11-21T06:59:24;65.15;;;35.45;;
54945;SDS011;40846;44.788;20.486;2023-11-21T07:01:50;57.08;;;35.08;;
54945;SDS011;40846;44.788;20.486;2023-11-21T07:04:16;58.35;;;33.85;;
54945;SDS011;40846;44.788;20.486;2023-11-21T07:06:43;54.08;;;33.63;;
54945;SDS011;40846;44.788;20.486;2023-11-21T07:09:09;57.15;;;31.65;;
54945;SDS011;40846;44.788;20.486;2023-11-21T07:11:37;108.45;;;74.75;;
54945;SDS011;40846;44.788;20.486;2023-11-21T07:14:03;47.72;;;29.95;;
54945;SDS011;40846;44.788;20.486;2023-11-21T07:16:35;49.45;;;29.20;;
54945;SDS011;40846;44.788;20.486;2023-11-21T07:19:03;59.55;;;31.08;;
54945;SDS011;40846;44.788;20.486;2023-11-21T07:21:31;49.35;;;28.77;;
54945;SDS011;40846;44.788;20.486;2023-11-21T07:23:58;51.15;;;29.52;;
54945;SDS011;40846;44.788;20.486;2023-11-21T07:26:24;49.40;;;29.10;;
54945;SDS011;40846;44.788;20.486;2023-11-21T07:28:51;53.92;;;30.27;;
54945;SDS011;40846;44.788;20.486;2023-11-21T07:31:17;47.90;;;29.60;;
54945;SDS011;40846;44.788;20.486;2023-11-21T07:33:45;45.78;;;28.45;;
54945;SDS011;40846;44.788;20.486;2023-11-21T07:36:14;44.30;;;28.70;;
54945;SDS011;40846;44.788;20.486;2023-11-21T07:38:41;48.58;;;28.63;;
54945;SDS011;40846;44.788;20.486;2023-11-21T07:41:08;45.90;;;27.25;;
54945;SDS011;40846;44.788;20.486;2023-11-21T07:43:35;48.88;;;26.98;;
54945;SDS011;40846;44.788;20.486;2023-11-21T07:46:01;45.10;;;25.63;;
54945;SDS011;40846;44.788;20.486;2023-11-21T07:48:31;44.58;;;26.00;;
54945;SDS011;40846;44.788;20.486;2023-11-21T07:50:57;42.08;;;25.42;;
54945;SDS011;40846;44.788;20.486;2023-11-21T07:53:24;38.33;;;24.55;;
54945;SDS011;40846;44.788;20.486;2023-11-21T07:55:53;42.65;;;24.95;;
54945;SDS011;40846;44.788;20.486;2023-11-21T07:58:20;40.70;;;23.60;;
54945;SDS011;40846;44.788;20.486;2023-11-21T08:00:46;43.42;;;25.27;;
54945;SDS011;40846;44.788;20.486;2023-11-21T08:03:15;47.45;;;24.42;;
54945;SDS011;40846;44.788;20.486;2023-11-21T08:05:44;42.78;;;24.85;;
54945;SDS011;40846;44.788;20.486;2023-11-21T08:08:11;40.72;;;23.95;;
54945;SDS011;40846;44.788;20.486;2023-11-21T08:10:37;40.53;;;22.20;;
54945;SDS011;40846;44.788;20.486;2023-11-21T08:13:06;35.90;;;20.17;;
54945;SDS011;40846;44.788;20.486;2023-11-21T08:15:34;34.38;;;20.05;;
54945;SDS011;40846;44.788;20.486;2023-11-21T08:18:02;31.83;;;18.45;;
54945;SDS011;40846;44.788;20.486;2023-11-21T08:20:28;31.98;;;17.80;;
54945;SDS011;40846;44.788;20.486;2023-11-21T08:22:54;31.92;;;18.33;;
54945;SDS011;40846;44.788;20.486;2023-11-21T08:25:22;29.27;;;16.67;;
54945;SDS011;40846;44.788;20.486;2023-11-21T08:27:48;31.55;;;19.20;;
54945;SDS011;40846;44.788;20.486;2023-11-21T08:30:14;25.30;;;15.48;;
54945;SDS011;40846;44.788;20.486;2023-11-21T08:32:42;27.75;;;16.63;;
54945;SDS011;40846;44.788;20.486;2023-11-21T08:35:11;28.10;;;17.30;;
54945;SDS011;40846;44.788;20.486;2023-11-21T08:37:41;29.98;;;18.65;;
54945;SDS011;40846;44.788;20.486;2023-11-21T08:40:07;28.73;;;18.63;;
54945;SDS011;40846;44.788;20.486;2023-11-21T08:42:34;28.33;;;17.52;;
54945;SDS011;40846;44.788;20.486;2023-11-21T08:45:01;30.05;;;18.15;;
54945;SDS011;40846;44.788;20.486;2023-11-21T08:47:27;29.23;;;18.05;;
54945;SDS011;40846;44.788;20.486;2023-11-21T08:49:53;27.08;;;16.80;;
54945;SDS011;40846;44.788;20.486;2023-11-21T08:52:19;30.38;;;18.13;;
54945;SDS011;40846;44.788;20.486;2023-11-21T08:54:48;29.67;;;16.85;;
54945;SDS011;40846;44.788;20.486;2023-11-21T08:57:33;36.28;;;17.05;;
54945;SDS011;40846;44.788;20.486;2023-11-21T09:00:03;29.15;;;17.35;;
54945;SDS011;40846;44.788;20.486;2023-11-21T09:02:32;33.53;;;16.38;;
54945;SDS011;40846;44.788;20.486;2023-11-21T09:05:07;36.20;;;18.55;;
54945;SDS011;40846;44.788;20.486;2023-11-21T09:07:34;30.50;;;16.83;;
54945;SDS011;40846;44.788;20.486;2023-11-21T09:10:00;34.25;;;19.00;;
54945;SDS011;40846;44.788;20.486;2023-11-21T09:12:26;34.72;;;18.15;;
54945;SDS011;40846;44.788;20.486;2023-11-21T09:14:52;39.13;;;20.02;;
54945;SDS011;40846;44.788;20.486;2023-11-21T09:17:21;30.52;;;18.77;;
54945;SDS011;40846;44.788;20.486;2023-11-21T09:19:48;31.63;;;19.38;;
54945;SDS011;40846;44.788;20.486;2023-11-21T09:22:16;33.92;;;19.42;;
54945;SDS011;40846;44.788;20.486;2023-11-21T09:24:43;33.75;;;18.83;;
54945;SDS011;40846;44.788;20.486;2023-11-21T09:27:09;30.17;;;17.90;;
54945;SDS011;40846;44.788;20.486;2023-11-21T09:29:36;33.20;;;18.75;;
54945;SDS011;40846;44.788;20.486;2023-11-21T09:32:05;31.88;;;18.30;;
54945;SDS011;40846;44.788;20.486;2023-11-21T09:34:33;34.50;;;18.25;;
54945;SDS011;40846;44.788;20.486;2023-11-21T09:37:03;30.73;;;18.52;;
54945;SDS011;40846;44.788;20.486;2023-11-21T09:39:32;36.63;;;18.30;;
54945;SDS011;40846;44.788;20.486;2023-11-21T09:42:10;33.03;;;18.98;;
54945;SDS011;40846;44.788;20.486;2023-11-21T09:47:03;44.47;;;19.52;;
54945;SDS011;40846;44.788;20.486;2023-11-21T09:49:29;38.05;;;18.88;;
54945;SDS011;40846;44.788;20.486;2023-11-21T09:52:00;30.38;;;18.77;;
54945;SDS011;40846;44.788;20.486;2023-11-21T09:54:28;31.35;;;18.85;;
54945;SDS011;40846;44.788;20.486;2023-11-21T09:56:56;34.75;;;19.05;;
54945;SDS011;40846;44.788;20.486;2023-11-21T09:59:23;31.98;;;18.67;;
54945;SDS011;40846;44.788;20.486;2023-11-21T10:01:49;34.25;;;18.88;;
54945;SDS011;40846;44.788;20.486;2023-11-21T10:04:16;34.60;;;20.33;;
54945;SDS011;40846;44.788;20.486;2023-11-21T10:06:42;33.30;;;19.85;;
54945;SDS011;40846;44.788;20.486;2023-11-21T10:09:13;34.28;;;17.48;;
54945;SDS011;40846;44.788;20.486;2023-11-21T10:11:43;28.75;;;18.45;;
54945;SDS011;40846;44.788;20.486;2023-11-21T10:14:10;30.58;;;17.30;;
54945;SDS011;40846;44.788;20.486;2023-11-21T10:16:38;34.63;;;17.67;;
54945;SDS011;40846;44.788;20.486;2023-11-21T10:19:04;42.70;;;18.40;;
54945;SDS011;40846;44.788;20.486;2023-11-21T10:21:33;31.40;;;17.25;;
54945;SDS011;40846;44.788;20.486;2023-11-21T10:23:59;30.88;;;18.42;;
54945;SDS011;40846;44.788;20.486;2023-11-21T10:26:26;33.60;;;18.98;;
54945;SDS011;40846;44.788;20.486;2023-11-21T10:29:00;36.58;;;19.15;;
54945;SDS011;40846;44.788;20.486;2023-11-21T10:31:32;36.05;;;19.33;;
54945;SDS011;40846;44.788;20.486;2023-11-21T10:34:33;30.63;;;17.30;;
54945;SDS011;40846;44.788;20.486;2023-11-21T10:36:52;36.53;;;18.85;;
54945;SDS011;40846;44.788;20.486;2023-11-21T10:39:21;33.22;;;18.58;;
54945;SDS011;40846;44.788;20.486;2023-11-21T10:41:49;29.02;;;18.65;;
54945;SDS011;40846;44.788;20.486;2023-11-21T10:44:19;32.45;;;18.95;;
54945;SDS011;40846;44.788;20.486;2023-11-21T10:46:52;38.38;;;19.20;;
54945;SDS011;40846;44.788;20.486;2023-11-21T10:49:21;35.95;;;19.63;;
54945;SDS011;40846;44.788;20.486;2023-11-21T10:51:50;33.10;;;17.83;;
54945;SDS011;40846;44.788;20.486;2023-11-21T10:54:21;29.38;;;18.92;;
54945;SDS011;40846;44.788;20.486;2023-11-21T10:56:49;59.92;;;29.17;;
54945;SDS011;40846;44.788;20.486;2023-11-21T10:59:17;53.28;;;28.83;;
54945;SDS011;40846;44.788;20.486;2023-11-21T11:01:46;194.05;;;92.82;;
54945;SDS011;40846;44.788;20.486;2023-11-21T11:04:18;72.57;;;38.05;;
54945;SDS011;40846;44.788;20.486;2023-11-21T11:06:44;94.10;;;49.70;;
54945;SDS011;40846;44.788;20.486;2023-11-21T11:09:11;99.45;;;51.65;;
54945;SDS011;40846;44.788;20.486;2023-11-21T11:11:42;41.00;;;22.27;;
54945;SDS011;40846;44.788;20.486;2023-11-21T11:14:12;40.00;;;21.42;;
54945;SDS011;40846;44.788;20.486;2023-11-21T11:16:39;40.58;;;22.33;;
54945;SDS011;40846;44.788;20.486;2023-11-21T11:19:10;38.00;;;21.90;;
54945;SDS011;40846;44.788;20.486;2023-11-21T11:24:18;40.90;;;21.83;;
54945;SDS011;40846;44.788;20.486;2023-11-21T11:26:55;37.70;;;22.85;;
54945;SDS011;40846;44.788;20.486;2023-11-21T11:32:16;48.60;;;28.25;;
54945;SDS011;40846;44.788;20.486;2023-11-21T11:34:48;55.90;;;29.83;;
54945;SDS011;40846;44.788;20.486;2023-11-21T11:37:16;87.50;;;43.78;;
54945;SDS011;40846;44.788;20.486;2023-11-21T11:39:42;89.03;;;44.72;;
54945;SDS011;40846;44.788;20.486;2023-11-21T11:42:12;51.53;;;32.45;;
54945;SDS011;40846;44.788;20.486;2023-11-21T11:47:31;74.13;;;34.53;;
54945;SDS011;40846;44.788;20.486;2023-11-21T11:49:58;49.03;;;32.05;;
54945;SDS011;40846;44.788;20.486;2023-11-21T11:52:32;63.00;;;33.58;;
54945;SDS011;40846;44.788;20.486;2023-11-21T11:54:59;56.38;;;32.20;;
54945;SDS011;40846;44.788;20.486;2023-11-21T11:57:25;51.42;;;30.85;;
54945;SDS011;40846;44.788;20.486;2023-11-21T12:00:07;48.22;;;32.22;;
54945;SDS011;40846;44.788;20.486;2023-11-21T12:02:40;56.38;;;31.70;;
54945;SDS011;40846;44.788;20.486;2023-11-21T12:05:13;55.38;;;31.10;;
54945;SDS011;40846;44.788;20.486;2023-11-21T12:07:52;53.67;;;31.83;;
54945;SDS011;40846;44.788;20.486;2023-11-21T12:10:20;52.95;;;31.75;;
54945;SDS011;40846;44.788;20.486;2023-11-21T12:12:51;50.40;;;31.42;;
54945;SDS011;40846;44.788;20.486;2023-11-21T12:15:20;66.75;;;37.00;;
54945;SDS011;40846;44.788;20.486;2023-11-21T12:17:46;60.85;;;33.85;;
54945;SDS011;40846;44.788;20.486;2023-11-21T12:20:14;76.30;;;43.88;;
54945;SDS011;40846;44.788;20.486;2023-11-21T12:22:48;78.80;;;42.80;;
54945;SDS011;40846;44.788;20.486;2023-11-21T12:25:19;62.63;;;36.72;;
54945;SDS011;40846;44.788;20.486;2023-11-21T12:27:46;67.70;;;34.03;;
54945;SDS011;40846;44.788;20.486;2023-11-21T12:30:14;58.42;;;36.30;;
54945;SDS011;40846;44.788;20.486;2023-11-21T12:32:44;57.83;;;36.92;;
54945;SDS011;40846;44.788;20.486;2023-11-21T12:35:11;67.78;;;37.67;;
54945;SDS011;40846;44.788;20.486;2023-11-21T12:37:38;56.92;;;37.20;;
54945;SDS011;40846;44.788;20.486;2023-11-21T12:40:05;64.13;;;38.50;;
54945;SDS011;40846;44.788;20.486;2023-11-21T12:42:32;61.88;;;38.03;;
54945;SDS011;40846;44.788;20.486;2023-11-21T12:45:08;62.67;;;37.05;;
54945;SDS011;40846;44.788;20.486;2023-11-21T12:47:41;62.90;;;37.77;;
54945;SDS011;40846;44.788;20.486;2023-11-21T12:50:07;70.68;;;40.03;;
54945;SDS011;40846;44.788;20.486;2023-11-21T12:52:40;66.97;;;40.08;;
54945;SDS011;40846;44.788;20.486;2023-11-21T12:55:06;70.25;;;40.78;;
54945;SDS011;40846;44.788;20.486;2023-11-21T12:57:34;76.82;;;43.10;;
54945;SDS011;40846;44.788;20.486;2023-11-21T13:00:03;85.78;;;44.38;;
54945;SDS011;40846;44.788;20.486;2023-11-21T13:02:37;73.25;;;43.90;;
54945;SDS011;40846;44.788;20.486;2023-11-21T13:05:07;64.75;;;42.42;;
54945;SDS011;40846;44.788;20.486;2023-11-21T13:07:43;74.80;;;43.17;;
54945;SDS011;40846;44.788;20.486;2023-11-21T13:10:16;76.55;;;42.78;;
54945;SDS011;40846;44.788;20.486;2023-11-21T13:12:42;69.30;;;42.00;;
54945;SDS011;40846;44.788;20.486;2023-11-21T13:15:09;69.18;;;43.83;;
54945;SDS011;40846;44.788;20.486;2023-11-21T13:17:35;68.82;;;41.13;;
54945;SDS011;40846;44.788;20.486;2023-11-21T13:20:02;77.95;;;44.97;;
54945;SDS011;40846;44.788;20.486;2023-11-21T13:22:32;53.75;;;32.60;;
54945;SDS011;40846;44.788;20.486;2023-11-21T13:24:58;70.38;;;38.25;;
54945;SDS011;40846;44.788;20.486;2023-11-21T13:27:24;122.80;;;71.60;;
54945;SDS011;40846;44.788;20.486;2023-11-21T13:29:51;157.05;;;96.05;;
54945;SDS011;40846;44.788;20.486;2023-11-21T13:32:17;141.30;;;84.80;;
54945;SDS011;40846;44.788;20.486;2023-11-21T13:34:46;104.85;;;63.95;;
54945;SDS011;40846;44.788;20.486;2023-11-21T13:37:12;68.60;;;46.75;;
54945;SDS011;40846;44.788;20.486;2023-11-21T13:39:38;204.57;;;129.10;;
54945;SDS011;40846;44.788;20.486;2023-11-21T13:42:09;88.03;;;51.50;;
54945;SDS011;40846;44.788;20.486;2023-11-21T13:44:36;113.25;;;75.18;;
54945;SDS011;40846;44.788;20.486;2023-11-21T13:47:06;101.40;;;63.88;;
54945;SDS011;40846;44.788;20.486;2023-11-21T13:49:32;103.88;;;64.82;;
54945;SDS011;40846;44.788;20.486;2023-11-21T13:52:05;160.55;;;100.13;;
54945;SDS011;40846;44.788;20.486;2023-11-21T13:54:32;97.60;;;57.75;;
54945;SDS011;40846;44.788;20.486;2023-11-21T13:56:58;104.40;;;63.40;;
54945;SDS011;40846;44.788;20.486;2023-11-21T13:59:25;152.15;;;86.47;;
54945;SDS011;40846;44.788;20.486;2023-11-21T14:01:53;100.35;;;57.95;;
54945;SDS011;40846;44.788;20.486;2023-11-21T14:04:21;118.93;;;72.80;;
54945;SDS011;40846;44.788;20.486;2023-11-21T14:07:04;82.93;;;49.05;;
54945;SDS011;40846;44.788;20.486;2023-11-21T14:09:53;91.15;;;55.05;;
54945;SDS011;40846;44.788;20.486;2023-11-21T14:12:19;120.60;;;66.28;;
54945;SDS011;40846;44.788;20.486;2023-11-21T14:14:46;65.35;;;41.58;;
54945;SDS011;40846;44.788;20.486;2023-11-21T14:17:13;64.18;;;39.05;;
54945;SDS011;40846;44.788;20.486;2023-11-21T14:19:40;54.63;;;35.28;;
54945;SDS011;40846;44.788;20.486;2023-11-21T14:22:09;57.17;;;36.42;;